createdAt,value
2018-06-16T00:01:53.515Z,6.13
2018-06-16T00:04:22.321Z,6.20
2018-06-16T00:06:51.303Z,6.27
2018-06-16T00:09:20.142Z,5.70
2018-06-16T00:11:48.943Z,5.33
2018-06-16T00:14:17.741Z,5.87
2018-06-16T00:16:46.558Z,6.07
2018-06-16T00:19:15.354Z,5.60
2018-06-16T00:21:44.155Z,5.90
2018-06-16T00:24:12.967Z,5.77
2018-06-16T00:26:41.775Z,6.90
2018-06-16T00:29:10.573Z,6.43
2018-06-16T00:31:39.381Z,6.77
2018-06-16T00:34:08.178Z,6.47
2018-06-16T00:36:36.981Z,6.23
2018-06-16T00:39:07.144Z,6.23
2018-06-16T00:41:35.941Z,6.67
2018-06-16T00:44:04.729Z,6.83
2018-06-16T00:46:33.556Z,6.50
2018-06-16T00:49:02.348Z,6.63
2018-06-16T00:51:31.158Z,6.60
2018-06-16T00:53:59.959Z,7.23
2018-06-16T00:56:28.651Z,7.03
2018-06-16T00:58:57.329Z,6.40
2018-06-16T01:01:26.133Z,6.70
2018-06-16T01:03:54.929Z,6.67
2018-06-16T01:06:23.721Z,6.90
2018-06-16T01:08:53.386Z,7.50
2018-06-16T01:11:22.195Z,7.50
2018-06-16T01:13:51.105Z,7.50
2018-06-16T01:16:19.951Z,7.77
2018-06-16T01:18:48.712Z,7.13
2018-06-16T01:21:17.520Z,7.43
2018-06-16T01:23:46.334Z,7.37
2018-06-16T01:26:15.135Z,8.10
2018-06-16T01:28:43.917Z,6.73
2018-06-16T01:31:12.725Z,6.73
2018-06-16T01:33:41.531Z,7.67
2018-06-16T01:36:10.334Z,7.77
2018-06-16T01:38:39.149Z,8.00
2018-06-16T01:41:07.782Z,7.63
2018-06-16T01:43:36.454Z,8.27
2018-06-16T01:46:05.260Z,8.10
2018-06-16T01:48:34.076Z,8.13
2018-06-16T01:51:02.891Z,7.27
2018-06-16T01:53:31.731Z,7.50
2018-06-16T01:56:00.527Z,7.83
2018-06-16T01:58:29.363Z,7.37
2018-06-16T02:00:58.195Z,7.80
2018-06-16T02:03:27.060Z,8.10
2018-06-16T02:05:56.086Z,7.23
2018-06-16T02:08:24.888Z,8.20
2018-06-16T02:10:53.701Z,7.40
2018-06-16T02:13:22.510Z,7.30
2018-06-16T02:15:51.331Z,7.90
2018-06-16T02:18:20.171Z,7.70
2018-06-16T02:20:48.974Z,8.27
2018-06-16T02:23:17.790Z,7.70
2018-06-16T02:25:46.662Z,7.63
2018-06-16T02:28:15.482Z,7.80
2018-06-16T02:30:44.272Z,7.93
2018-06-16T02:33:13.075Z,7.90
2018-06-16T02:35:41.866Z,8.50
2018-06-16T02:38:10.703Z,8.17
2018-06-16T02:40:39.495Z,8.50
2018-06-16T02:43:08.314Z,8.63
2018-06-16T02:45:37.113Z,8.43
2018-06-16T02:48:05.912Z,9.30
2018-06-16T02:50:34.851Z,9.87
2018-06-16T02:53:03.540Z,9.57
2018-06-16T02:55:32.530Z,8.57
2018-06-16T02:58:01.346Z,8.80
2018-06-16T03:00:30.148Z,9.13
2018-06-16T03:02:58.955Z,9.03
2018-06-16T03:05:27.746Z,8.80
2018-06-16T03:07:56.543Z,8.63
2018-06-16T03:10:25.361Z,8.43
2018-06-16T03:12:54.168Z,8.10
2018-06-16T03:15:23.113Z,8.23
2018-06-16T03:17:51.916Z,8.47
2018-06-16T03:20:20.711Z,8.50
2018-06-16T03:22:49.510Z,8.10
2018-06-16T03:25:18.327Z,8.97
2018-06-16T03:27:47.133Z,8.70
2018-06-16T03:30:15.840Z,8.73
2018-06-16T03:32:44.523Z,8.87
2018-06-16T03:35:13.435Z,8.57
2018-06-16T03:37:42.259Z,9.10
2018-06-16T03:40:11.059Z,10.07
2018-06-16T03:42:39.885Z,9.63
2018-06-16T03:45:08.668Z,9.93
2018-06-16T03:47:37.472Z,9.77
2018-06-16T03:50:06.287Z,9.43
2018-06-16T03:52:35.077Z,9.63
2018-06-16T03:55:03.956Z,9.73
2018-06-16T03:57:32.777Z,9.37
2018-06-16T04:00:01.563Z,9.20
2018-06-16T04:02:30.499Z,9.43
2018-06-16T04:04:59.312Z,9.23
2018-06-16T04:07:28.124Z,9.20
2018-06-16T04:09:56.923Z,9.40
2018-06-16T04:12:25.741Z,9.33
2018-06-16T04:14:54.536Z,9.73
2018-06-16T04:17:23.343Z,9.60
2018-06-16T04:19:52.939Z,10.10
2018-06-16T04:22:22.027Z,10.10
2018-06-16T04:24:50.841Z,10.40
2018-06-16T04:27:19.652Z,9.93
2018-06-16T04:29:48.447Z,9.97
2018-06-16T04:32:17.262Z,10.13
2018-06-16T04:34:46.150Z,10.87
2018-06-16T04:37:14.892Z,9.47
2018-06-16T04:39:43.695Z,10.47
2018-06-16T04:42:12.499Z,10.93
2018-06-16T04:44:41.305Z,12.57
2018-06-16T04:47:10.104Z,11.07
2018-06-16T04:49:38.907Z,10.67
2018-06-16T04:52:07.699Z,10.57
2018-06-16T04:54:36.495Z,9.73
2018-06-16T04:57:05.348Z,9.30
2018-06-16T04:59:34.121Z,9.47
2018-06-16T05:02:02.931Z,9.53
2018-06-16T05:04:31.747Z,9.77
2018-06-16T05:07:00.657Z,9.93
2018-06-16T05:09:29.433Z,9.07
2018-06-16T05:11:58.238Z,9.50
2018-06-16T05:14:27.065Z,8.60
2018-06-16T05:16:57.447Z,9.60
2018-06-16T05:19:26.347Z,9.17
2018-06-16T05:21:55.241Z,9.53
2018-06-16T05:24:24.029Z,8.90
2018-06-16T05:26:52.855Z,9.20
2018-06-16T05:29:21.708Z,8.60
2018-06-16T05:31:50.603Z,8.77
2018-06-16T05:34:19.220Z,8.13
2018-06-16T05:36:47.921Z,8.37
2018-06-16T05:39:16.723Z,8.03
2018-06-16T05:41:45.555Z,8.43
2018-06-16T05:44:14.967Z,8.40
2018-06-16T05:46:43.781Z,8.00
2018-06-16T05:49:12.668Z,8.70
2018-06-16T05:51:41.519Z,7.33
2018-06-16T05:54:10.439Z,8.27
2018-06-16T05:56:39.272Z,8.83
2018-06-16T05:59:08.075Z,8.97
2018-06-16T06:01:36.899Z,8.80
2018-06-16T06:04:06.116Z,9.03
2018-06-16T06:06:34.947Z,8.30
2018-06-16T06:09:05.466Z,8.20
2018-06-16T06:11:34.291Z,8.50
2018-06-16T06:14:03.104Z,7.67
2018-06-16T06:16:32.097Z,9.17
2018-06-16T06:19:00.981Z,8.43
2018-06-16T06:21:29.782Z,7.90
2018-06-16T06:23:58.580Z,8.40
2018-06-16T06:26:27.383Z,8.00
2018-06-16T06:28:56.352Z,7.50
2018-06-16T06:31:25.166Z,7.07
2018-06-16T06:33:54.411Z,8.30
2018-06-16T06:36:23.207Z,8.27
2018-06-16T06:38:52.024Z,8.03
2018-06-16T06:41:20.987Z,7.50
2018-06-16T06:43:49.878Z,8.53
2018-06-16T06:46:18.681Z,7.43
2018-06-16T06:48:47.500Z,7.97
2018-06-16T06:51:16.311Z,8.50
2018-06-16T06:53:45.177Z,7.83
2018-06-16T06:56:13.943Z,8.13
2018-06-16T06:58:42.776Z,7.90
2018-06-16T07:01:11.589Z,7.17
2018-06-16T07:03:40.507Z,7.40
2018-06-16T07:06:09.311Z,6.77
2018-06-16T07:08:38.119Z,7.07
2018-06-16T07:11:06.911Z,7.77
2018-06-16T07:13:35.739Z,6.83
2018-06-16T07:16:04.549Z,7.10
2018-06-16T07:18:33.360Z,6.70
2018-06-16T07:21:02.148Z,6.90
2018-06-16T07:23:31.046Z,6.93
2018-06-16T07:25:59.824Z,6.70
2018-06-16T07:28:28.627Z,6.97
2018-06-16T07:30:57.472Z,6.73
2018-06-16T07:33:26.353Z,7.13
2018-06-16T07:35:55.150Z,7.83
2018-06-16T07:38:23.945Z,6.90
2018-06-16T07:40:52.815Z,7.80
2018-06-16T07:43:21.615Z,7.83
2018-06-16T07:45:50.403Z,7.03
2018-06-16T07:48:19.195Z,7.40
2018-06-16T07:50:48.031Z,7.40
2018-06-16T07:53:16.834Z,7.43
2018-06-16T07:55:45.618Z,6.80
2018-06-16T07:58:14.431Z,7.00
2018-06-16T08:00:43.227Z,7.23
2018-06-16T08:03:12.033Z,6.57
2018-06-16T08:05:40.906Z,6.00
2018-06-16T08:08:09.724Z,6.33
2018-06-16T08:10:38.573Z,6.60
2018-06-16T08:13:07.403Z,10.17
2018-06-16T08:15:36.215Z,6.50
2018-06-16T08:18:05.100Z,6.03
2018-06-16T08:20:33.864Z,6.20
2018-06-16T08:23:03.067Z,6.40
2018-06-16T08:25:31.916Z,6.93
2018-06-16T08:28:00.719Z,6.80
2018-06-16T08:30:29.532Z,6.50
2018-06-16T08:32:58.330Z,6.33
2018-06-16T08:35:27.159Z,6.10
2018-06-16T08:37:55.971Z,6.70
2018-06-16T08:40:24.791Z,6.40
2018-06-16T08:42:53.603Z,5.90
2018-06-16T08:45:22.430Z,5.60
2018-06-16T08:47:51.237Z,6.13
2018-06-16T08:50:20.059Z,6.03
2018-06-16T08:52:48.875Z,6.20
2018-06-16T08:55:17.888Z,5.13
2018-06-16T08:57:46.684Z,5.30
2018-06-16T09:00:15.513Z,5.63
2018-06-16T09:02:44.325Z,6.53
2018-06-16T09:05:13.159Z,5.77
2018-06-16T09:07:41.959Z,5.63
2018-06-16T09:10:10.776Z,5.73
2018-06-16T09:12:39.578Z,5.60
2018-06-16T09:15:08.387Z,5.50
2018-06-16T09:17:37.201Z,5.70
2018-06-16T09:20:06.159Z,6.10
2018-06-16T09:22:35.057Z,5.90
2018-06-16T09:25:04.048Z,5.70
2018-06-16T09:27:32.855Z,5.30
2018-06-16T09:30:01.709Z,5.63
2018-06-16T09:32:30.500Z,5.90
2018-06-16T09:34:59.320Z,5.43
2018-06-16T09:37:28.119Z,5.67
2018-06-16T09:39:56.931Z,5.33
2018-06-16T09:42:25.752Z,5.30
2018-06-16T09:44:54.557Z,4.83
2018-06-16T09:47:23.362Z,5.10
2018-06-16T09:49:52.175Z,5.07
2018-06-16T09:52:21.003Z,5.00
2018-06-16T09:54:49.823Z,4.17
2018-06-16T09:57:18.651Z,4.90
2018-06-16T09:59:47.466Z,4.80
2018-06-16T10:02:16.359Z,5.17
2018-06-16T10:04:45.182Z,5.30
2018-06-16T10:07:14.007Z,5.00
2018-06-16T10:09:42.812Z,4.93
2018-06-16T10:12:11.619Z,4.70
2018-06-16T10:14:40.443Z,3.80
2018-06-16T10:17:09.252Z,4.53
2018-06-16T10:19:38.120Z,3.83
2018-06-16T10:22:06.994Z,4.23
2018-06-16T10:24:35.872Z,4.20
2018-06-16T10:27:04.680Z,4.40
2018-06-16T10:29:33.485Z,3.90
2018-06-16T10:32:02.295Z,4.27
2018-06-16T10:34:31.108Z,3.40
2018-06-16T10:36:59.920Z,3.60
2018-06-16T10:39:28.736Z,2.80
2018-06-16T10:41:57.569Z,2.27
2018-06-16T10:44:26.389Z,1.67
2018-06-16T10:46:55.248Z,1.80
2018-06-16T10:49:24.081Z,1.83
2018-06-16T10:51:52.907Z,2.07
2018-06-16T10:54:21.718Z,1.83
2018-06-16T10:56:50.530Z,1.90
2018-06-16T10:59:19.327Z,1.90
2018-06-16T11:01:48.135Z,2.00
2018-06-16T11:04:16.952Z,2.13
2018-06-16T11:06:45.788Z,1.90
2018-06-16T11:09:14.615Z,2.07
2018-06-16T11:11:43.400Z,1.90
2018-06-16T11:14:12.209Z,2.20
2018-06-16T11:16:41.100Z,1.80
2018-06-16T11:19:09.964Z,2.47
2018-06-16T11:21:38.709Z,2.90
2018-06-16T11:24:07.507Z,2.10
2018-06-16T11:26:36.292Z,2.27
2018-06-16T11:29:05.218Z,2.40
2018-06-16T11:31:34.185Z,2.67
2018-06-16T11:34:02.978Z,2.27
2018-06-16T11:36:31.774Z,2.43
2018-06-16T11:39:00.563Z,2.60
2018-06-16T11:41:29.350Z,2.70
2018-06-16T11:43:58.563Z,3.03
2018-06-16T11:46:27.423Z,3.03
2018-06-16T11:48:56.730Z,3.13
2018-06-16T11:51:25.533Z,3.83
2018-06-16T11:53:54.317Z,3.40
2018-06-16T11:56:22.928Z,3.33
2018-06-16T11:58:51.623Z,3.30
2018-06-16T12:01:20.438Z,3.53
2018-06-16T12:03:49.230Z,3.80
2018-06-16T12:06:18.024Z,3.70
2018-06-16T12:08:46.811Z,3.97
2018-06-16T12:11:15.653Z,3.83
2018-06-16T12:13:44.520Z,3.90
2018-06-16T12:16:13.362Z,3.90
2018-06-16T12:18:42.263Z,4.17
2018-06-16T12:21:11.165Z,3.73
2018-06-16T12:23:39.976Z,4.57
2018-06-16T12:26:08.767Z,4.77
2018-06-16T12:28:37.589Z,4.60
2018-06-16T12:31:06.479Z,4.73
2018-06-16T12:33:35.293Z,4.33
2018-06-16T12:36:04.099Z,4.30
2018-06-16T12:38:32.941Z,3.63
2018-06-16T12:41:01.853Z,3.90
2018-06-16T12:43:30.791Z,3.70
2018-06-16T12:45:59.605Z,3.97
2018-06-16T12:48:28.444Z,3.57
2018-06-16T12:50:57.279Z,4.00
2018-06-16T12:53:26.055Z,3.50
2018-06-16T12:55:54.873Z,3.90
2018-06-16T12:58:23.684Z,3.80
2018-06-16T13:00:52.550Z,3.40
2018-06-16T13:03:21.338Z,3.67
2018-06-16T13:05:50.151Z,3.37
2018-06-16T13:08:18.952Z,3.47
2018-06-16T13:10:47.763Z,3.07
2018-06-16T13:13:16.561Z,2.80
2018-06-16T13:15:45.363Z,2.70
2018-06-16T13:18:14.210Z,2.73
2018-06-16T13:20:42.991Z,2.73
2018-06-16T13:23:11.841Z,2.90
2018-06-16T13:25:40.642Z,3.40
2018-06-16T13:28:09.428Z,3.27
2018-06-16T13:30:38.227Z,2.70
2018-06-16T13:33:07.016Z,3.07
2018-06-16T13:35:36.090Z,3.40
2018-06-16T13:38:05.226Z,3.13
2018-06-16T13:40:34.063Z,3.20
2018-06-16T13:43:02.909Z,2.90
2018-06-16T13:45:31.658Z,3.00
2018-06-16T13:48:00.455Z,3.30
2018-06-16T13:50:29.320Z,3.40
2018-06-16T13:52:58.414Z,3.27
2018-06-16T13:55:27.230Z,3.47
2018-06-16T13:57:56.035Z,3.30
2018-06-16T14:00:25.195Z,3.10
2018-06-16T14:02:53.994Z,3.30
2018-06-16T14:05:22.828Z,3.10
2018-06-16T14:07:51.920Z,2.83
2018-06-16T14:10:20.856Z,3.13
2018-06-16T14:12:49.985Z,2.63
2018-06-16T14:15:18.754Z,2.83
2018-06-16T14:17:47.550Z,2.67
2018-06-16T14:20:16.336Z,2.90
2018-06-16T14:22:45.132Z,2.80
2018-06-16T14:25:13.932Z,2.93
2018-06-16T14:27:42.776Z,2.60
2018-06-16T14:30:11.563Z,2.70
2018-06-16T14:32:40.373Z,2.87
2018-06-16T14:35:09.224Z,2.93
2018-06-16T14:37:38.020Z,3.03
2018-06-16T14:40:06.930Z,2.87
2018-06-16T14:42:35.814Z,3.03
2018-06-16T14:45:04.728Z,3.73
2018-06-16T14:47:33.588Z,3.00
2018-06-16T14:50:02.371Z,3.07
2018-06-16T14:52:31.208Z,3.23
2018-06-16T14:54:59.987Z,3.23
2018-06-16T14:57:28.807Z,3.30
2018-06-16T14:59:57.600Z,3.17
2018-06-16T15:02:26.395Z,3.37
2018-06-16T15:04:55.411Z,3.10
2018-06-16T15:07:23.989Z,3.60
2018-06-16T15:09:52.814Z,3.60
2018-06-16T15:12:21.600Z,3.37
2018-06-16T15:14:50.462Z,3.67
2018-06-16T15:17:19.267Z,3.43
2018-06-16T15:19:48.067Z,3.67
2018-06-16T15:22:16.875Z,3.83
2018-06-16T15:24:45.804Z,4.10
2018-06-16T15:27:14.625Z,3.70
2018-06-16T15:29:43.432Z,3.63
2018-06-16T15:32:12.275Z,4.00
2018-06-16T15:34:41.079Z,3.83
2018-06-16T15:37:09.894Z,3.53
2018-06-16T15:39:38.618Z,4.00
2018-06-16T15:42:07.317Z,3.87
2018-06-16T15:44:36.119Z,4.03
2018-06-16T15:47:04.935Z,4.30
2018-06-16T15:49:33.735Z,4.30
2018-06-16T15:52:02.531Z,4.90
2018-06-16T15:54:31.365Z,5.13
2018-06-16T15:57:00.173Z,4.07
2018-06-16T15:59:29.131Z,4.67
2018-06-16T16:01:58.036Z,5.57
2018-06-16T16:04:27.662Z,5.50
2018-06-16T16:06:56.534Z,4.07
2018-06-16T16:09:25.383Z,3.90
2018-06-16T16:11:54.184Z,5.40
2018-06-16T16:14:23.111Z,4.33
2018-06-16T16:16:51.912Z,4.40
2018-06-16T16:19:20.719Z,5.77
2018-06-16T16:21:49.367Z,4.53
2018-06-16T16:24:18.057Z,4.40
2018-06-16T16:26:46.839Z,4.43
2018-06-16T16:29:15.650Z,4.03
2018-06-16T16:31:44.505Z,6.03
2018-06-16T16:34:13.322Z,5.17
2018-06-16T16:36:42.118Z,4.20
2018-06-16T16:39:11.062Z,4.33
2018-06-16T16:41:40.251Z,3.80
2018-06-16T16:44:09.063Z,3.43
2018-06-16T16:46:37.943Z,3.70
2018-06-16T16:49:07.040Z,4.20
2018-06-16T16:51:35.943Z,4.00
2018-06-16T16:54:04.749Z,5.10
2018-06-16T16:56:33.565Z,4.27
2018-06-16T16:59:02.379Z,4.23
2018-06-16T17:01:31.185Z,4.30
2018-06-16T17:04:00.106Z,4.03
2018-06-16T17:06:28.875Z,4.53
2018-06-16T17:08:57.747Z,4.03
2018-06-16T17:11:26.657Z,3.40
2018-06-16T17:13:55.459Z,4.00
2018-06-16T17:16:24.263Z,4.03
2018-06-16T17:18:53.119Z,4.00
2018-06-16T17:21:22.145Z,4.27
2018-06-16T17:23:50.932Z,4.10
2018-06-16T17:26:19.738Z,3.60
2018-06-16T17:28:48.553Z,3.80
2018-06-16T17:31:17.369Z,3.67
2018-06-16T17:33:48.784Z,3.50
2018-06-16T17:36:17.964Z,3.90
2018-06-16T17:38:46.761Z,3.80
2018-06-16T17:41:15.678Z,3.63
2018-06-16T17:43:44.492Z,3.80
2018-06-16T17:46:13.333Z,3.90
2018-06-16T17:48:42.141Z,3.77
2018-06-16T17:51:10.986Z,3.50
2018-06-16T17:53:39.793Z,3.60
2018-06-16T17:56:08.608Z,3.70
2018-06-16T17:58:37.502Z,5.47
2018-06-16T18:01:06.328Z,3.70
2018-06-16T18:03:35.175Z,4.33
2018-06-16T18:06:04.004Z,4.10
2018-06-16T18:08:33.116Z,3.43
2018-06-16T18:11:07.385Z,3.60
2018-06-16T18:13:36.647Z,5.27
2018-06-16T18:16:05.706Z,4.53
2018-06-16T18:18:34.559Z,4.20
2018-06-16T18:21:03.375Z,4.00
2018-06-16T18:23:32.180Z,5.67
2018-06-16T18:26:00.991Z,6.23
2018-06-16T18:28:29.809Z,5.50
2018-06-16T18:30:58.619Z,8.77
2018-06-16T18:33:28.013Z,9.50
2018-06-16T18:35:56.850Z,7.10
2018-06-16T18:38:25.671Z,9.57
2018-06-16T18:40:54.602Z,13.90
2018-06-16T18:43:23.419Z,11.90
2018-06-16T18:45:52.235Z,10.57
2018-06-16T18:48:21.139Z,6.00
2018-06-16T18:50:49.939Z,5.23
2018-06-16T18:53:18.773Z,5.60
2018-06-16T18:55:47.591Z,4.97
2018-06-16T18:58:16.655Z,4.77
2018-06-16T19:00:45.480Z,5.50
2018-06-16T19:03:14.298Z,5.20
2018-06-16T19:05:43.134Z,4.50
2018-06-16T19:08:11.955Z,4.67
2018-06-16T19:10:40.886Z,5.03
2018-06-16T19:13:09.737Z,4.47
2018-06-16T19:15:38.552Z,4.50
2018-06-16T19:18:07.351Z,4.13
2018-06-16T19:20:36.219Z,4.20
2018-06-16T19:23:05.280Z,4.27
2018-06-16T19:25:34.012Z,4.30
2018-06-16T19:28:02.825Z,4.90
2018-06-16T19:30:32.231Z,4.60
2018-06-16T19:33:01.173Z,4.40
2018-06-16T19:35:29.981Z,4.60
2018-06-16T19:37:58.841Z,4.30
2018-06-16T19:40:27.635Z,4.07
2018-06-16T19:42:56.461Z,4.87
2018-06-16T19:45:25.285Z,4.17
2018-06-16T19:47:54.095Z,4.57
2018-06-16T19:50:23.105Z,4.07
2018-06-16T19:52:51.975Z,4.83
2018-06-16T19:55:20.813Z,4.13
2018-06-16T19:57:49.727Z,4.87
2018-06-16T20:00:18.540Z,4.57
2018-06-16T20:02:47.412Z,4.53
2018-06-16T20:05:16.220Z,4.63
2018-06-16T20:07:45.020Z,4.67
2018-06-16T20:10:14.588Z,4.67
2018-06-16T20:12:43.418Z,4.70
2018-06-16T20:15:12.237Z,4.70
2018-06-16T20:17:41.033Z,4.70
2018-06-16T20:20:09.851Z,4.53
2018-06-16T20:22:38.656Z,5.00
2018-06-16T20:25:07.543Z,5.00
2018-06-16T20:27:36.412Z,4.77
2018-06-16T20:30:05.239Z,5.37
2018-06-16T20:32:34.035Z,5.37
2018-06-16T20:35:02.831Z,5.00
2018-06-16T20:37:31.707Z,5.40
2018-06-16T20:40:00.742Z,5.20
2018-06-16T20:42:29.415Z,5.87
2018-06-16T20:44:58.202Z,5.20
2018-06-16T20:47:26.991Z,5.63
2018-06-16T20:49:55.797Z,4.97
2018-06-16T20:52:24.605Z,4.97
2018-06-16T20:54:53.604Z,5.10
2018-06-16T20:57:22.409Z,4.80
2018-06-16T20:59:51.203Z,5.57
2018-06-16T21:02:20.086Z,6.33
2018-06-16T21:04:49.704Z,5.70
2018-06-16T21:07:18.519Z,5.73
2018-06-16T21:09:47.389Z,5.77
2018-06-16T21:12:16.183Z,5.43
2018-06-16T21:14:45.024Z,5.83
2018-06-16T21:17:13.838Z,5.80
2018-06-16T21:19:42.704Z,5.47
2018-06-16T21:22:11.515Z,5.53
2018-06-16T21:24:40.574Z,5.97
2018-06-16T21:27:09.769Z,5.57
2018-06-16T21:29:38.754Z,5.83
2018-06-16T21:32:07.571Z,5.70
2018-06-16T21:34:36.375Z,6.57
2018-06-16T21:37:05.228Z,6.40
2018-06-16T21:39:34.145Z,5.90
2018-06-16T21:42:02.965Z,5.60
2018-06-16T21:44:31.803Z,6.03
2018-06-16T21:47:00.625Z,5.90
2018-06-16T21:49:29.442Z,5.80
2018-06-16T21:51:58.260Z,5.90
2018-06-16T21:54:27.073Z,6.33
2018-06-16T21:56:55.891Z,5.50
2018-06-16T21:59:24.719Z,6.23
2018-06-16T22:01:53.607Z,6.43
2018-06-16T22:04:22.539Z,6.27
2018-06-16T22:06:51.325Z,6.97
2018-06-16T22:09:20.136Z,6.20
2018-06-16T22:11:48.972Z,6.80
2018-06-16T22:14:17.787Z,5.80
2018-06-16T22:16:46.600Z,6.07
2018-06-16T22:19:15.403Z,6.10
2018-06-16T22:21:44.208Z,5.90
2018-06-16T22:24:13.009Z,6.00
2018-06-16T22:26:41.802Z,5.83
2018-06-16T22:29:10.631Z,5.90
2018-06-16T22:31:39.437Z,5.83
2018-06-16T22:34:08.243Z,6.30
2018-06-16T22:36:37.071Z,6.10
2018-06-16T22:39:08.818Z,5.80
2018-06-16T22:41:37.615Z,5.90
2018-06-16T22:44:06.694Z,5.73
2018-06-16T22:46:35.519Z,6.13
2018-06-16T22:49:04.390Z,6.40
2018-06-16T22:51:33.199Z,6.20
2018-06-16T22:54:01.996Z,5.80
2018-06-16T22:56:30.783Z,6.00
2018-06-16T22:58:59.582Z,6.10
2018-06-16T23:01:28.403Z,5.97
2018-06-16T23:03:57.205Z,6.23
2018-06-16T23:06:26.020Z,6.30
2018-06-16T23:08:54.822Z,5.77
2018-06-16T23:11:23.652Z,6.20
2018-06-16T23:13:52.631Z,6.73
2018-06-16T23:16:21.420Z,6.73
2018-06-16T23:18:50.237Z,5.97
2018-06-16T23:21:19.033Z,6.43
2018-06-16T23:23:47.835Z,6.37
2018-06-16T23:26:16.627Z,6.60
2018-06-16T23:28:45.437Z,6.07
2018-06-16T23:31:14.471Z,6.40
2018-06-16T23:33:43.263Z,6.80
2018-06-16T23:36:12.059Z,6.53
2018-06-16T23:38:40.877Z,6.60
2018-06-16T23:41:09.660Z,6.63
2018-06-16T23:43:38.468Z,8.83
2018-06-16T23:46:07.268Z,7.40
2018-06-16T23:48:36.063Z,6.67
2018-06-16T23:51:04.872Z,6.57
2018-06-16T23:53:33.672Z,6.93
2018-06-16T23:56:02.477Z,6.90
2018-06-16T23:58:31.335Z,7.23
